Time;durP1;ratioP1;P1;durP2;ratioP2;P2;SDS_P1;SDS_P2;PMS_P1;PMS_P2;Temp;Humidity;BMP_temperature;BMP_pressure;BME280_temperature;BME280_humidity;BME280_pressure;Samples;Min_cycle;Max_cycle;Signal;HPM_P1;HPM_P2
2022/08/14 00:00:23;;;;;;;4.20;3.80;;;;;;;;;;4472060;28;20035;-67
2022/08/14 00:02:34;;;;;;;4.50;4.05;;;;;;;;;;4472411;28;20078;-67
2022/08/14 00:04:44;;;;;;;4.32;3.92;;;;;;;;;;4472970;28;20857;-67
2022/08/14 00:06:55;;;;;;;4.22;3.83;;;;;;;;;;4472081;28;20038;-65
2022/08/14 00:09:05;;;;;;;4.30;3.90;;;;;;;;;;4471986;28;20071;-66
2022/08/14 00:11:16;;;;;;;4.43;4.03;;;;;;;;;;4473213;28;20078;-66
2022/08/14 00:13:28;;;;;;;5.15;4.55;;;;;;;;;;4456640;28;20549;-67
2022/08/14 00:15:42;;;;;;;4.22;3.70;;;;;;;;;;4469879;28;20368;-66
2022/08/14 00:17:52;;;;;;;4.88;4.43;;;;;;;;;;4475050;28;20097;-66
2022/08/14 00:20:04;;;;;;;4.60;3.88;;;;;;;;;;4463330;28;20042;-66
2022/08/14 00:22:17;;;;;;;4.45;3.80;;;;;;;;;;4452307;28;20086;-66
2022/08/14 00:24:28;;;;;;;4.40;4.00;;;;;;;;;;4476030;28;20557;-66
2022/08/14 00:26:38;;;;;;;4.65;4.07;;;;;;;;;;4475358;28;20122;-66
2022/08/14 00:28:50;;;;;;;4.00;3.60;;;;;;;;;;4475614;28;20391;-66
2022/08/14 00:31:02;;;;;;;4.25;3.85;;;;;;;;;;4474965;28;20526;-66
2022/08/14 00:33:13;;;;;;;4.45;3.88;;;;;;;;;;4476438;28;20137;-66
2022/08/14 00:35:24;;;;;;;4.35;3.72;;;;;;;;;;4475673;28;20094;-66
2022/08/14 00:37:38;;;;;;;4.68;3.72;;;;;;;;;;4475213;28;20062;-66
2022/08/14 00:39:49;;;;;;;4.70;4.20;;;;;;;;;;4474388;28;20650;-66
2022/08/14 00:42:00;;;;;;;4.15;3.75;;;;;;;;;;4474631;28;20101;-66
2022/08/14 00:44:10;;;;;;;4.43;4.00;;;;;;;;;;4467783;28;20074;-67
2022/08/14 00:46:21;;;;;;;4.00;3.60;;;;;;;;;;4476082;28;20372;-67
2022/08/14 00:48:32;;;;;;;4.05;3.65;;;;;;;;;;4475778;28;20564;-66
2022/08/14 00:50:43;;;;;;;4.40;4.00;;;;;;;;;;4475450;28;20037;-66
2022/08/14 00:52:54;;;;;;;4.40;4.00;;;;;;;;;;4475951;28;20034;-66
2022/08/14 00:55:07;;;;;;;4.75;4.03;;;;;;;;;;4473739;28;20410;-66
2022/08/14 00:57:19;;;;;;;4.43;3.83;;;;;;;;;;4475573;28;20073;-65
2022/08/14 00:59:30;;;;;;;4.95;4.05;;;;;;;;;;4458033;28;20134;-65
2022/08/14 01:01:40;;;;;;;4.28;3.67;;;;;;;;;;4467512;28;20575;-65
2022/08/14 01:03:52;;;;;;;4.57;3.97;;;;;;;;;;4459837;28;20078;-66
2022/08/14 01:06:02;;;;;;;4.53;4.07;;;;;;;;;;4476079;28;20046;-66
2022/08/14 01:08:13;;;;;;;4.88;4.05;;;;;;;;;;4474641;28;20387;-66
2022/08/14 01:10:49;;;;;;;4.95;3.95;;;;;;;;;;4475501;28;20043;-66
2022/08/14 01:12:58;;;;;;;4.57;4.10;;;;;;;;;;4474194;28;20027;-66
2022/08/14 01:15:08;;;;;;;4.78;4.15;;;;;;;;;;4474125;28;20505;-65
2022/08/14 01:17:20;;;;;;;4.03;3.50;;;;;;;;;;4475900;28;20940;-65
2022/08/14 01:22:00;;;;;;;4.57;3.80;;;;;;;;;;4474434;28;20221;-65
2022/08/14 01:24:14;;;;;;;4.60;4.13;;;;;;;;;;4458519;28;20051;-65
2022/08/14 01:26:25;;;;;;;4.18;3.78;;;;;;;;;;4459701;28;20045;-66
2022/08/14 01:28:36;;;;;;;5.05;3.70;;;;;;;;;;4471926;28;20037;-65
2022/08/14 01:30:48;;;;;;;4.35;3.92;;;;;;;;;;4474207;28;20161;-65
2022/08/14 01:32:59;;;;;;;4.60;4.10;;;;;;;;;;4475545;28;21076;-65
2022/08/14 01:35:09;;;;;;;4.78;4.28;;;;;;;;;;4461673;28;20039;-65
2022/08/14 01:37:24;;;;;;;4.47;3.90;;;;;;;;;;4474173;28;20089;-65
2022/08/14 01:39:35;;;;;;;4.20;3.80;;;;;;;;;;4473959;28;20597;-65
2022/08/14 01:41:52;;;;;;;4.13;3.72;;;;;;;;;;4474998;28;20284;-65
2022/08/14 01:44:11;;;;;;;4.30;3.90;;;;;;;;;;4459774;28;20117;-66
2022/08/14 01:46:23;;;;;;;4.70;4.20;;;;;;;;;;4457380;28;20035;-66
2022/08/14 01:48:33;;;;;;;4.57;4.10;;;;;;;;;;4457333;28;20094;-66
2022/08/14 01:50:44;;;;;;;5.32;3.85;;;;;;;;;;4474715;28;20045;-66
2022/08/14 01:52:54;;;;;;;4.18;3.70;;;;;;;;;;4473700;28;20038;-66
2022/08/14 01:55:11;;;;;;;4.38;3.97;;;;;;;;;;4473882;28;20018;-66
2022/08/14 01:57:22;;;;;;;4.28;3.80;;;;;;;;;;4467071;28;20042;-66
2022/08/14 01:59:33;;;;;;;4.55;3.92;;;;;;;;;;4467395;28;20054;-66
2022/08/14 02:01:45;;;;;;;4.32;3.75;;;;;;;;;;4474948;28;20031;-66
2022/08/14 02:03:56;;;;;;;4.50;3.80;;;;;;;;;;4473685;28;20545;-66
2022/08/14 02:06:07;;;;;;;4.75;4.07;;;;;;;;;;4473310;28;20038;-66
2022/08/14 02:08:17;;;;;;;4.07;3.67;;;;;;;;;;4458706;28;20786;-66
2022/08/14 02:10:28;;;;;;;4.30;3.70;;;;;;;;;;4473866;28;20041;-66
2022/08/14 02:12:39;;;;;;;4.32;3.92;;;;;;;;;;4474081;28;20026;-66
2022/08/14 02:14:50;;;;;;;4.47;3.90;;;;;;;;;;4473512;28;20175;-66
2022/08/14 02:17:01;;;;;;;4.47;4.00;;;;;;;;;;4474246;28;20043;-66
2022/08/14 02:19:14;;;;;;;4.38;3.88;;;;;;;;;;4474361;28;20030;-66
2022/08/14 02:21:25;;;;;;;5.15;4.15;;;;;;;;;;4476030;28;20038;-66
2022/08/14 02:23:36;;;;;;;4.20;3.80;;;;;;;;;;4472224;28;20073;-65
2022/08/14 02:25:46;;;;;;;3.83;3.42;;;;;;;;;;4474399;28;20554;-66
2022/08/14 02:27:57;;;;;;;4.57;3.95;;;;;;;;;;4473511;28;20039;-66
2022/08/14 02:30:08;;;;;;;4.10;3.70;;;;;;;;;;4461732;28;20140;-66
2022/08/14 02:32:19;;;;;;;4.25;3.85;;;;;;;;;;4473187;28;20038;-66
2022/08/14 02:34:35;;;;;;;4.50;4.10;;;;;;;;;;4474888;28;20038;-66
2022/08/14 02:36:49;;;;;;;4.18;3.78;;;;;;;;;;4473479;28;21040;-66
2022/08/14 02:39:00;;;;;;;5.18;3.97;;;;;;;;;;4473379;28;20113;-66
2022/08/14 02:41:11;;;;;;;4.60;3.97;;;;;;;;;;4472746;28;20763;-67
2022/08/14 02:43:22;;;;;;;4.65;4.15;;;;;;;;;;4473929;28;20035;-67
2022/08/14 02:45:33;;;;;;;4.18;3.78;;;;;;;;;;4472275;28;20039;-67
2022/08/14 02:47:43;;;;;;;4.22;3.83;;;;;;;;;;4474897;28;20057;-68
2022/08/14 02:49:54;;;;;;;4.50;4.10;;;;;;;;;;4473696;28;20392;-67
2022/08/14 02:52:06;;;;;;;4.20;3.80;;;;;;;;;;4466730;28;20563;-67
2022/08/14 02:54:16;;;;;;;4.20;3.80;;;;;;;;;;4473675;28;20729;-67
2022/08/14 02:56:27;;;;;;;4.15;3.75;;;;;;;;;;4473853;28;20082;-67
2022/08/14 02:58:40;;;;;;;4.40;3.83;;;;;;;;;;4472912;28;20045;-67
2022/08/14 03:00:50;;;;;;;4.50;3.85;;;;;;;;;;4440975;28;20036;-67
2022/08/14 03:03:01;;;;;;;4.57;3.92;;;;;;;;;;4473693;28;20027;-66
2022/08/14 03:05:12;;;;;;;4.18;3.78;;;;;;;;;;4475154;28;20105;-67
2022/08/14 03:07:22;;;;;;;5.13;4.13;;;;;;;;;;4460173;28;20030;-68
2022/08/14 03:09:33;;;;;;;4.20;3.80;;;;;;;;;;4474305;28;20039;-67
2022/08/14 03:11:43;;;;;;;4.55;4.00;;;;;;;;;;4462016;28;20047;-67
2022/08/14 03:13:54;;;;;;;4.32;3.92;;;;;;;;;;4475699;28;20030;-66
2022/08/14 03:16:07;;;;;;;4.10;3.70;;;;;;;;;;4463144;28;20129;-66
2022/08/14 03:18:22;;;;;;;4.78;4.20;;;;;;;;;;4474263;28;20141;-67
2022/08/14 03:20:33;;;;;;;4.53;4.00;;;;;;;;;;4457545;28;20785;-67
2022/08/14 03:22:44;;;;;;;4.30;3.90;;;;;;;;;;4474600;28;20325;-67
2022/08/14 03:24:54;;;;;;;4.47;4.07;;;;;;;;;;4456587;28;20047;-67
2022/08/14 03:27:05;;;;;;;4.38;3.97;;;;;;;;;;4474249;28;20038;-67
2022/08/14 03:29:19;;;;;;;4.78;4.13;;;;;;;;;;4473376;28;20034;-67
2022/08/14 03:31:30;;;;;;;5.28;4.22;;;;;;;;;;4465798;28;20057;-67
2022/08/14 03:33:41;;;;;;;4.47;3.72;;;;;;;;;;4465296;28;20050;-66
2022/08/14 03:35:52;;;;;;;4.70;4.20;;;;;;;;;;4461457;28;20038;-67
2022/08/14 03:38:07;;;;;;;4.22;3.83;;;;;;;;;;4472122;28;20030;-67
2022/08/14 03:40:21;;;;;;;4.70;4.25;;;;;;;;;;4474517;28;20069;-67
2022/08/14 03:42:34;;;;;;;3.97;3.58;;;;;;;;;;4465012;28;20043;-66
2022/08/14 03:44:44;;;;;;;3.83;3.35;;;;;;;;;;4461059;28;20043;-67
2022/08/14 03:46:55;;;;;;;4.22;3.72;;;;;;;;;;4471512;28;20048;-65
2022/08/14 03:49:05;;;;;;;4.05;3.65;;;;;;;;;;4460657;28;20042;-65
2022/08/14 03:51:16;;;;;;;4.13;3.40;;;;;;;;;;4473125;28;20039;-65
2022/08/14 03:53:26;;;;;;;3.95;3.50;;;;;;;;;;4474942;28;20046;-65
2022/08/14 03:55:37;;;;;;;4.20;3.50;;;;;;;;;;4458723;28;20043;-65
2022/08/14 03:57:48;;;;;;;3.42;3.13;;;;;;;;;;4457076;28;20023;-65
2022/08/14 04:00:02;;;;;;;3.95;3.40;;;;;;;;;;4473531;28;20043;-65
2022/08/14 04:02:23;;;;;;;3.88;3.47;;;;;;;;;;4469611;28;20578;-64
2022/08/14 04:04:33;;;;;;;5.30;3.60;;;;;;;;;;4473690;28;20034;-66
2022/08/14 04:06:44;;;;;;;3.80;3.40;;;;;;;;;;4472308;28;20046;-66
2022/08/14 04:08:54;;;;;;;3.78;3.38;;;;;;;;;;4473073;28;20138;-66
2022/08/14 04:11:06;;;;;;;4.50;3.30;;;;;;;;;;4473284;28;20035;-66
2022/08/14 04:13:17;;;;;;;4.05;3.58;;;;;;;;;;4472112;28;20810;-66
2022/08/14 04:15:27;;;;;;;3.30;3.00;;;;;;;;;;4465153;28;20034;-66
2022/08/14 04:17:40;;;;;;;3.08;2.78;;;;;;;;;;4459009;28;20129;-66
2022/08/14 04:19:50;;;;;;;3.10;2.80;;;;;;;;;;4473348;28;20030;-66
2022/08/14 04:22:01;;;;;;;3.35;3.05;;;;;;;;;;4456554;28;20042;-65
2022/08/14 04:24:13;;;;;;;3.53;3.22;;;;;;;;;;4458461;28;20031;-66
2022/08/14 04:26:26;;;;;;;4.38;3.97;;;;;;;;;;4458476;28;20559;-65
2022/08/14 04:28:39;;;;;;;4.05;3.65;;;;;;;;;;4472777;28;20047;-65
2022/08/14 04:30:49;;;;;;;4.43;3.83;;;;;;;;;;4471904;28;21214;-65
2022/08/14 04:33:00;;;;;;;4.75;3.90;;;;;;;;;;4470476;28;20034;-65
2022/08/14 04:35:10;;;;;;;4.18;3.70;;;;;;;;;;4472214;28;20042;-65
2022/08/14 04:44:51;;;;;;;4.32;3.92;;;;;;;;;;4470752;28;20806;-66
2022/08/14 04:49:31;;;;;;;4.22;3.45;;;;;;;;;;4471595;28;20146;-65
2022/08/14 04:51:42;;;;;;;4.05;3.38;;;;;;;;;;4471895;28;20030;-66
2022/08/14 04:53:54;;;;;;;3.92;3.53;;;;;;;;;;4471418;28;20034;-63
2022/08/14 04:56:05;;;;;;;3.25;2.90;;;;;;;;;;4460831;28;20034;-65
2022/08/14 04:58:23;;;;;;;3.90;3.50;;;;;;;;;;4471755;28;21048;-66
2022/08/14 05:00:33;;;;;;;3.40;3.10;;;;;;;;;;4471769;28;20037;-65
2022/08/14 05:02:44;;;;;;;4.05;3.25;;;;;;;;;;4471530;28;20033;-66
2022/08/14 05:04:54;;;;;;;3.30;3.00;;;;;;;;;;4474206;28;20046;-66
2022/08/14 05:07:05;;;;;;;3.97;3.58;;;;;;;;;;4474883;28;20042;-66
2022/08/14 05:09:15;;;;;;;3.72;3.30;;;;;;;;;;4461063;28;20153;-66
2022/08/14 05:11:26;;;;;;;3.72;3.42;;;;;;;;;;4474642;28;20045;-66
2022/08/14 05:13:37;;;;;;;4.40;3.47;;;;;;;;;;4475497;28;20387;-66
2022/08/14 05:15:48;;;;;;;3.78;3.38;;;;;;;;;;4467431;28;20038;-65
2022/08/14 05:18:00;;;;;;;3.63;3.00;;;;;;;;;;4462167;28;20579;-65
2022/08/14 05:20:11;;;;;;;3.30;3.00;;;;;;;;;;4475150;28;20037;-65
2022/08/14 05:22:21;;;;;;;3.58;2.80;;;;;;;;;;4446966;28;20053;-65
2022/08/14 05:24:32;;;;;;;3.30;2.85;;;;;;;;;;4474717;28;20145;-65
2022/08/14 05:26:44;;;;;;;3.10;2.80;;;;;;;;;;4461579;28;20746;-65
2022/08/14 05:28:54;;;;;;;3.40;3.08;;;;;;;;;;4475413;28;20736;-65
2022/08/14 05:31:06;;;;;;;3.28;2.97;;;;;;;;;;4462022;28;20166;-65
2022/08/14 05:33:18;;;;;;;3.53;3.22;;;;;;;;;;4443617;28;20069;-65
2022/08/14 05:35:31;;;;;;;3.47;3.10;;;;;;;;;;4458729;28;20573;-65
2022/08/14 05:37:41;;;;;;;3.28;2.97;;;;;;;;;;4460607;28;20031;-65
2022/08/14 05:39:53;;;;;;;3.92;3.53;;;;;;;;;;4465208;28;20055;-65
2022/08/14 05:42:03;;;;;;;3.75;3.25;;;;;;;;;;4459730;28;21254;-65
2022/08/14 05:44:14;;;;;;;3.63;3.28;;;;;;;;;;4461427;28;20099;-65
2022/08/14 05:46:24;;;;;;;3.47;3.17;;;;;;;;;;4457639;28;20046;-65
2022/08/14 05:48:35;;;;;;;3.40;3.10;;;;;;;;;;4474125;28;20035;-66
2022/08/14 05:50:45;;;;;;;3.60;3.20;;;;;;;;;;4457531;28;20174;-65
2022/08/14 05:52:57;;;;;;;4.22;3.70;;;;;;;;;;4466763;28;20045;-65
2022/08/14 05:55:09;;;;;;;4.20;3.70;;;;;;;;;;4474195;28;20884;-66
2022/08/14 05:57:20;;;;;;;3.58;3.15;;;;;;;;;;4474735;28;20586;-65
2022/08/14 05:59:31;;;;;;;3.30;3.00;;;;;;;;;;4467422;28;20023;-65
2022/08/14 06:01:41;;;;;;;3.42;3.13;;;;;;;;;;4458806;28;20036;-65
2022/08/14 06:03:51;;;;;;;4.15;3.65;;;;;;;;;;4474612;28;20130;-65
2022/08/14 06:06:02;;;;;;;3.45;2.92;;;;;;;;;;4474945;28;20333;-65
2022/08/14 06:08:27;;;;;;;3.90;3.42;;;;;;;;;;4473802;28;20062;-65
2022/08/14 06:10:38;;;;;;;4.18;3.40;;;;;;;;;;4473832;28;20046;-66
2022/08/14 06:12:48;;;;;;;4.25;3.85;;;;;;;;;;4473700;28;20035;-66
2022/08/14 06:14:59;;;;;;;4.57;4.07;;;;;;;;;;4473529;28;20039;-66
2022/08/14 06:17:10;;;;;;;4.15;3.75;;;;;;;;;;4474382;28;20066;-65
2022/08/14 06:19:20;;;;;;;4.00;3.60;;;;;;;;;;4472310;28;20046;-65
2022/08/14 06:21:31;;;;;;;4.30;3.90;;;;;;;;;;4474984;28;20158;-66
2022/08/14 06:23:41;;;;;;;4.65;3.90;;;;;;;;;;4459705;28;20091;-66
2022/08/14 06:25:52;;;;;;;4.00;3.60;;;;;;;;;;4473430;28;20431;-65
2022/08/14 06:28:02;;;;;;;4.35;3.95;;;;;;;;;;4474134;28;20141;-65
2022/08/14 06:30:22;;;;;;;4.30;3.88;;;;;;;;;;4474377;28;20066;-66
2022/08/14 06:32:33;;;;;;;4.38;3.97;;;;;;;;;;4474232;28;20034;-65
2022/08/14 06:34:44;;;;;;;4.43;3.83;;;;;;;;;;4473510;28;20595;-64
2022/08/14 06:36:55;;;;;;;4.13;3.72;;;;;;;;;;4472162;28;20045;-65
2022/08/14 06:39:07;;;;;;;4.32;3.83;;;;;;;;;;4475779;28;20030;-65
2022/08/14 06:41:17;;;;;;;4.28;3.72;;;;;;;;;;4474354;28;20569;-65
2022/08/14 06:43:28;;;;;;;3.80;3.38;;;;;;;;;;4472752;28;20089;-65
2022/08/14 06:45:40;;;;;;;4.25;3.85;;;;;;;;;;4473089;28;20431;-65
2022/08/14 06:47:50;;;;;;;4.25;3.85;;;;;;;;;;4461995;28;20043;-65
2022/08/14 06:50:03;;;;;;;4.88;3.50;;;;;;;;;;4458409;28;20046;-65
2022/08/14 06:52:14;;;;;;;4.32;3.92;;;;;;;;;;4474698;28;20070;-65
2022/08/14 06:54:24;;;;;;;4.43;4.03;;;;;;;;;;4474628;28;20050;-66
2022/08/14 06:56:35;;;;;;;4.68;4.20;;;;;;;;;;4466216;28;20545;-66
2022/08/14 06:58:46;;;;;;;4.72;4.07;;;;;;;;;;4457956;28;20050;-64
2022/08/14 07:05:55;;;;;;;4.50;3.85;;;;;;;;;;4473069;28;20085;-64
2022/08/14 07:08:31;;;;;;;4.30;3.88;;;;;;;;;;4473486;28;20050;-66
2022/08/14 07:10:43;;;;;;;4.63;3.85;;;;;;;;;;4472261;28;20582;-63
2022/08/14 07:12:54;;;;;;;4.40;4.00;;;;;;;;;;4446601;28;20123;-62
2022/08/14 07:15:05;;;;;;;4.40;4.00;;;;;;;;;;4444276;28;20042;-63
2022/08/14 07:17:16;;;;;;;4.20;3.55;;;;;;;;;;4459217;28;20062;-63
2022/08/14 07:19:26;;;;;;;4.07;3.67;;;;;;;;;;4472465;28;20448;-69
2022/08/14 07:21:38;;;;;;;4.65;4.15;;;;;;;;;;4460018;28;20039;-62
2022/08/14 07:23:48;;;;;;;4.57;3.58;;;;;;;;;;4473282;28;20130;-65
2022/08/14 07:26:03;;;;;;;4.63;3.80;;;;;;;;;;4472236;28;20023;-62
2022/08/14 07:28:16;;;;;;;4.07;3.65;;;;;;;;;;4459858;28;20097;-62
2022/08/14 07:30:26;;;;;;;4.30;3.90;;;;;;;;;;4456346;28;20031;-65
2022/08/14 07:32:37;;;;;;;4.80;3.92;;;;;;;;;;4457893;28;20043;-62
2022/08/14 07:34:47;;;;;;;4.30;3.88;;;;;;;;;;4471550;28;20090;-62
2022/08/14 07:36:58;;;;;;;4.15;3.75;;;;;;;;;;4453898;28;20074;-62
2022/08/14 07:39:08;;;;;;;4.35;3.90;;;;;;;;;;4471807;28;20046;-63
2022/08/14 07:41:18;;;;;;;4.10;3.70;;;;;;;;;;4471895;28;20094;-63
2022/08/14 07:43:29;;;;;;;4.00;3.60;;;;;;;;;;4448975;28;20035;-62
2022/08/14 07:45:40;;;;;;;5.28;3.90;;;;;;;;;;4451107;28;20504;-62
2022/08/14 07:47:51;;;;;;;4.55;4.15;;;;;;;;;;4463997;28;20082;-62
2022/08/14 07:50:04;;;;;;;4.45;3.88;;;;;;;;;;4455336;28;20126;-62
2022/08/14 07:52:14;;;;;;;4.25;3.85;;;;;;;;;;4470719;28;20045;-62
2022/08/14 07:54:25;;;;;;;4.38;3.85;;;;;;;;;;4453025;28;20515;-62
2022/08/14 07:56:35;;;;;;;4.93;3.78;;;;;;;;;;4453717;28;20518;-62
2022/08/14 07:58:46;;;;;;;4.22;3.83;;;;;;;;;;4456718;28;20031;-62
2022/08/14 08:00:56;;;;;;;4.90;3.92;;;;;;;;;;4454382;28;20578;-62
2022/08/14 08:03:10;;;;;;;4.38;3.97;;;;;;;;;;4438151;28;20118;-62
2022/08/14 08:05:25;;;;;;;4.03;3.63;;;;;;;;;;4454538;28;20042;-65
2022/08/14 08:07:38;;;;;;;4.13;3.72;;;;;;;;;;4471050;28;20125;-65
2022/08/14 08:09:50;;;;;;;4.10;3.70;;;;;;;;;;4426802;28;20608;-65
2022/08/14 08:12:01;;;;;;;4.60;3.78;;;;;;;;;;4438981;28;20071;-65
2022/08/14 08:14:12;;;;;;;4.18;3.75;;;;;;;;;;4455794;28;20724;-65
2022/08/14 08:16:23;;;;;;;4.13;3.72;;;;;;;;;;4438726;28;20066;-65
2022/08/14 08:18:34;;;;;;;4.40;4.00;;;;;;;;;;4443655;28;20027;-66
2022/08/14 08:20:49;;;;;;;4.47;4.00;;;;;;;;;;4439063;28;20094;-66
2022/08/14 08:23:02;;;;;;;5.10;4.03;;;;;;;;;;4455009;28;20591;-66
2022/08/14 08:25:13;;;;;;;4.50;3.65;;;;;;;;;;4469893;28;20054;-66
2022/08/14 08:27:23;;;;;;;4.30;3.90;;;;;;;;;;4442914;28;20043;-66
2022/08/14 08:29:33;;;;;;;5.03;4.05;;;;;;;;;;4448089;28;20079;-66
2022/08/14 08:31:49;;;;;;;4.90;3.80;;;;;;;;;;4455705;28;20031;-66
2022/08/14 08:34:04;;;;;;;4.65;3.88;;;;;;;;;;4457359;28;20130;-66
2022/08/14 08:36:15;;;;;;;4.60;4.07;;;;;;;;;;4439848;28;20105;-66
2022/08/14 08:38:26;;;;;;;4.28;3.88;;;;;;;;;;4457578;28;20045;-66
2022/08/14 08:40:40;;;;;;;4.25;3.85;;;;;;;;;;4459187;28;20044;-66
2022/08/14 08:42:51;;;;;;;4.05;3.65;;;;;;;;;;4450568;28;20054;-66
2022/08/14 08:45:01;;;;;;;4.20;3.70;;;;;;;;;;4459157;28;20501;-66
2022/08/14 08:47:12;;;;;;;4.20;3.80;;;;;;;;;;4457957;28;20039;-66
2022/08/14 08:49:22;;;;;;;4.30;3.90;;;;;;;;;;4446459;28;20444;-66
2022/08/14 08:51:37;;;;;;;4.15;3.67;;;;;;;;;;4458455;28;20043;-67
2022/08/14 08:53:56;;;;;;;4.22;3.83;;;;;;;;;;4442293;28;20028;-67
2022/08/14 08:56:06;;;;;;;4.35;3.85;;;;;;;;;;4457492;28;20082;-64
2022/08/14 08:58:18;;;;;;;4.20;3.80;;;;;;;;;;4458141;28;20085;-65
2022/08/14 09:00:32;;;;;;;4.55;4.03;;;;;;;;;;4457428;28;20542;-65
2022/08/14 09:02:53;;;;;;;4.10;3.70;;;;;;;;;;4472890;28;20038;-65
2022/08/14 09:05:04;;;;;;;4.25;3.85;;;;;;;;;;4472569;28;20462;-65
2022/08/14 09:07:15;;;;;;;4.30;3.90;;;;;;;;;;4459126;28;20028;-65
2022/08/14 09:09:28;;;;;;;4.30;3.90;;;;;;;;;;4456047;28;20047;-65
2022/08/14 09:11:38;;;;;;;3.95;3.55;;;;;;;;;;4472782;28;20696;-65
2022/08/14 09:13:50;;;;;;;4.30;3.90;;;;;;;;;;4473481;28;20030;-65
2022/08/14 09:16:01;;;;;;;4.28;3.88;;;;;;;;;;4472850;28;20078;-65
2022/08/14 09:18:14;;;;;;;4.43;3.83;;;;;;;;;;4449499;28;21243;-66
2022/08/14 09:20:25;;;;;;;4.30;3.90;;;;;;;;;;4441344;28;20602;-66
2022/08/14 09:22:36;;;;;;;4.32;3.92;;;;;;;;;;4443151;28;20040;-66
2022/08/14 09:24:48;;;;;;;4.05;3.60;;;;;;;;;;4471397;28;20133;-66
2022/08/14 09:26:58;;;;;;;4.10;3.70;;;;;;;;;;4456920;28;20024;-66
2022/08/14 09:29:09;;;;;;;3.97;3.58;;;;;;;;;;4457433;28;20043;-66
2022/08/14 09:31:21;;;;;;;4.07;3.63;;;;;;;;;;4470941;28;20648;-66
2022/08/14 09:34:07;;;;;;;3.95;3.35;;;;;;;;;;4457993;28;20386;-66
2022/08/14 09:36:32;;;;;;;4.13;3.65;;;;;;;;;;4437321;28;20044;-66
2022/08/14 09:38:53;;;;;;;4.38;3.38;;;;;;;;;;4451288;28;20598;-65
2022/08/14 09:41:30;;;;;;;3.58;3.28;;;;;;;;;;4455111;28;20035;-65
2022/08/14 09:44:02;;;;;;;3.65;3.33;;;;;;;;;;4472213;28;20038;-65
2022/08/14 09:46:14;;;;;;;3.65;3.00;;;;;;;;;;4461572;28;20125;-66
2022/08/14 09:48:26;;;;;;;2.78;2.58;;;;;;;;;;4472820;28;20050;-67
2022/08/14 09:50:48;;;;;;;3.30;3.00;;;;;;;;;;4443035;28;20621;-67
2022/08/14 09:53:03;;;;;;;2.85;2.65;;;;;;;;;;4444716;28;20931;-67
2022/08/14 09:55:19;;;;;;;2.90;2.60;;;;;;;;;;4457507;28;20050;-67
2022/08/14 09:57:29;;;;;;;3.00;2.70;;;;;;;;;;4457267;28;20039;-67
2022/08/14 09:59:46;;;;;;;2.80;2.60;;;;;;;;;;4456046;28;20047;-64
2022/08/14 10:01:56;;;;;;;3.25;2.95;;;;;;;;;;4456392;28;20034;-64
2022/08/14 10:04:19;;;;;;;3.67;3.20;;;;;;;;;;4457070;28;20046;-65
2022/08/14 10:06:30;;;;;;;3.20;2.90;;;;;;;;;;4472679;28;21220;-65
2022/08/14 10:08:47;;;;;;;3.50;3.17;;;;;;;;;;4456128;28;20042;-65
2022/08/14 10:10:58;;;;;;;3.67;3.35;;;;;;;;;;4458086;28;20074;-65
2022/08/14 10:13:25;;;;;;;3.88;3.38;;;;;;;;;;4457680;28;20162;-65
2022/08/14 10:15:44;;;;;;;;;;;;;;;;;;4449462;28;20035;-65
2022/08/14 10:18:13;;;;;;;4.00;3.60;;;;;;;;;;4471452;28;19922;-65
2022/08/14 10:20:33;;;;;;;3.28;2.97;;;;;;;;;;4446719;28;20070;-65
2022/08/14 10:22:43;;;;;;;3.88;3.47;;;;;;;;;;4472474;28;20031;-65
2022/08/14 10:24:54;;;;;;;2.70;2.50;;;;;;;;;;4443704;28;20079;-65
2022/08/14 10:27:17;;;;;;;3.10;2.80;;;;;;;;;;4456245;28;20045;-65
2022/08/14 10:29:33;;;;;;;3.05;2.75;;;;;;;;;;4456379;28;20043;-65
2022/08/14 10:31:43;;;;;;;3.00;2.72;;;;;;;;;;4457605;28;20608;-65
2022/08/14 10:34:02;;;;;;;2.75;2.55;;;;;;;;;;4444425;28;20090;-65
2022/08/14 10:36:31;;;;;;;3.20;2.90;;;;;;;;;;4456762;28;20034;-65
2022/08/14 10:38:41;;;;;;;3.15;2.85;;;;;;;;;;4456960;28;20094;-65
2022/08/14 10:40:52;;;;;;;2.97;2.70;;;;;;;;;;4448931;28;20605;-65
2022/08/14 10:43:19;;;;;;;4.28;3.25;;;;;;;;;;4456377;28;20470;-66
2022/08/14 10:45:32;;;;;;;2.92;2.70;;;;;;;;;;4456161;28;20047;-66
2022/08/14 10:47:42;;;;;;;3.63;3.15;;;;;;;;;;4456378;28;20039;-66
2022/08/14 10:49:59;;;;;;;3.28;2.92;;;;;;;;;;4457450;28;20484;-66
2022/08/14 10:52:13;;;;;;;3.50;3.20;;;;;;;;;;4471570;28;20030;-66
2022/08/14 10:54:30;;;;;;;3.85;3.45;;;;;;;;;;4471324;28;20026;-66
2022/08/14 10:56:40;;;;;;;3.80;3.30;;;;;;;;;;4445319;28;20152;-66
2022/08/14 10:58:59;;;;;;;3.72;3.35;;;;;;;;;;4448107;28;20039;-66
2022/08/14 11:01:11;;;;;;;3.38;3.08;;;;;;;;;;4456463;28;20038;-66
2022/08/14 11:03:22;;;;;;;3.15;2.80;;;;;;;;;;4458407;28;20044;-66
2022/08/14 11:05:46;;;;;;;3.40;3.10;;;;;;;;;;4455938;28;20045;-66
2022/08/14 11:08:01;;;;;;;3.58;3.28;;;;;;;;;;4456703;28;20280;-66
2022/08/14 11:10:13;;;;;;;3.83;3.33;;;;;;;;;;4455966;28;20043;-66
2022/08/14 11:12:25;;;;;;;3.10;2.80;;;;;;;;;;4455870;28;20038;-66
2022/08/14 11:14:36;;;;;;;3.53;3.22;;;;;;;;;;4471478;28;20038;-66
2022/08/14 11:16:47;;;;;;;3.42;3.13;;;;;;;;;;4471535;28;20039;-67
2022/08/14 11:18:58;;;;;;;3.28;2.97;;;;;;;;;;4455005;28;20335;-67
2022/08/14 11:21:13;;;;;;;4.03;2.70;;;;;;;;;;4457057;28;20141;-67
2022/08/14 11:23:30;;;;;;;2.78;2.50;;;;;;;;;;4457883;28;20038;-66
2022/08/14 11:25:43;;;;;;;;;;;;;;;;;;4456922;28;20945;-66
2022/08/14 11:27:57;;;;;;;2.50;2.30;;;;;;;;;;4470702;28;19922;-67
2022/08/14 11:30:11;;;;;;;2.33;2.05;;;;;;;;;;4444688;28;20981;-66
2022/08/14 11:32:21;;;;;;;3.15;2.85;;;;;;;;;;4426365;28;20103;-65
2022/08/14 11:34:36;;;;;;;2.35;2.15;;;;;;;;;;4453797;28;20082;-65
2022/08/14 11:36:46;;;;;;;2.20;2.00;;;;;;;;;;4454993;28;20736;-66
2022/08/14 11:38:57;;;;;;;2.60;2.40;;;;;;;;;;4456447;28;20047;-66
2022/08/14 11:41:08;;;;;;;2.60;2.40;;;;;;;;;;4454483;28;20125;-66
2022/08/14 11:43:19;;;;;;;2.70;2.50;;;;;;;;;;4455998;28;20031;-66
2022/08/14 11:45:35;;;;;;;3.05;2.75;;;;;;;;;;4455228;28;20095;-66
2022/08/14 11:47:46;;;;;;;3.45;2.55;;;;;;;;;;4455210;28;20026;-66
2022/08/14 11:49:57;;;;;;;3.65;2.75;;;;;;;;;;4455291;28;20114;-65
2022/08/14 11:52:08;;;;;;;2.67;2.47;;;;;;;;;;4456576;28;20039;-65
2022/08/14 11:54:18;;;;;;;2.80;2.60;;;;;;;;;;4439223;28;20034;-66
2022/08/14 11:56:38;;;;;;;3.28;2.97;;;;;;;;;;4469459;28;20081;-65
2022/08/14 11:58:51;;;;;;;3.55;2.80;;;;;;;;;;4455535;28;20055;-66
2022/08/14 12:01:06;;;;;;;3.45;3.13;;;;;;;;;;4454045;28;20031;-66
2022/08/14 12:03:17;;;;;;;3.08;2.78;;;;;;;;;;4454978;28;20075;-66
2022/08/14 12:05:38;;;;;;;2.85;2.58;;;;;;;;;;4447222;28;20582;-66
2022/08/14 12:07:49;;;;;;;3.25;2.95;;;;;;;;;;4456358;28;20123;-66
2022/08/14 12:09:59;;;;;;;2.60;2.20;;;;;;;;;;4464691;28;20045;-66
2022/08/14 12:12:18;;;;;;;3.40;3.10;;;;;;;;;;4455145;28;20031;-66
2022/08/14 12:14:28;;;;;;;3.13;2.83;;;;;;;;;;4466772;28;20043;-66
2022/08/14 12:16:39;;;;;;;3.20;2.90;;;;;;;;;;4450892;28;20024;-66
2022/08/14 12:18:49;;;;;;;4.03;2.83;;;;;;;;;;4457545;28;20035;-66
2022/08/14 12:21:18;;;;;;;3.30;3.00;;;;;;;;;;4473014;28;20428;-65
2022/08/14 12:23:28;;;;;;;3.10;2.80;;;;;;;;;;4441699;28;20937;-65
2022/08/14 12:25:39;;;;;;;4.03;2.97;;;;;;;;;;4459094;28;20079;-65
2022/08/14 12:27:51;;;;;;;3.00;2.70;;;;;;;;;;4456827;28;20027;-65
2022/08/14 12:30:02;;;;;;;2.90;2.60;;;;;;;;;;4457036;28;20150;-65
2022/08/14 12:32:12;;;;;;;2.55;2.35;;;;;;;;;;4451168;28;20031;-65
2022/08/14 12:34:30;;;;;;;3.05;2.65;;;;;;;;;;4460292;28;20604;-65
2022/08/14 12:36:41;;;;;;;2.83;2.53;;;;;;;;;;4459708;28;20662;-65
2022/08/14 12:38:54;;;;;;;2.97;2.67;;;;;;;;;;4459113;28;21105;-65
2022/08/14 12:41:21;;;;;;;2.97;2.67;;;;;;;;;;4458566;28;20672;-65
2022/08/14 12:43:44;;;;;;;3.00;2.70;;;;;;;;;;4457513;28;20055;-65
2022/08/14 12:45:54;;;;;;;2.75;2.55;;;;;;;;;;4449666;28;20043;-66
2022/08/14 12:48:05;;;;;;;3.00;2.70;;;;;;;;;;4457216;28;20547;-66
2022/08/14 12:50:16;;;;;;;2.85;2.60;;;;;;;;;;4457142;28;20126;-66
2022/08/14 12:52:32;;;;;;;3.10;2.70;;;;;;;;;;4446140;28;20027;-65
2022/08/14 12:54:43;;;;;;;3.00;2.70;;;;;;;;;;4459374;28;20035;-65
2022/08/14 12:57:10;;;;;;;3.05;2.80;;;;;;;;;;4458143;28;20390;-64
2022/08/14 12:59:32;;;;;;;3.00;2.70;;;;;;;;;;4430900;28;20036;-70
2022/08/14 13:01:44;;;;;;;2.92;2.65;;;;;;;;;;4458325;28;20035;-66
2022/08/14 13:04:15;;;;;;;2.60;2.40;;;;;;;;;;4456513;28;20067;-66
2022/08/14 13:06:27;;;;;;;2.78;2.58;;;;;;;;;;4458824;28;20038;-67
2022/08/14 13:08:38;;;;;;;4.60;3.05;;;;;;;;;;4458043;28;20039;-68
2022/08/14 13:10:49;;;;;;;3.20;2.63;;;;;;;;;;4441194;28;20709;-67
2022/08/14 13:13:00;;;;;;;2.75;2.47;;;;;;;;;;4457482;28;21208;-68
2022/08/14 13:15:12;;;;;;;3.28;2.80;;;;;;;;;;4438802;28;20028;-69
2022/08/14 13:17:24;;;;;;;2.60;2.40;;;;;;;;;;4457073;28;20079;-69
2022/08/14 13:19:39;;;;;;;2.92;2.60;;;;;;;;;;4459451;28;20031;-67
2022/08/14 13:21:52;;;;;;;2.67;2.40;;;;;;;;;;4458222;28;20047;-66
2022/08/14 13:24:02;;;;;;;2.40;2.20;;;;;;;;;;4456311;28;20031;-67
2022/08/14 13:26:13;;;;;;;2.78;2.47;;;;;;;;;;4458290;28;20923;-67
2022/08/14 13:28:26;;;;;;;3.30;2.60;;;;;;;;;;4457651;28;20039;-67
2022/08/14 13:30:37;;;;;;;2.42;2.22;;;;;;;;;;4458142;28;20114;-66
2022/08/14 13:32:47;;;;;;;2.50;2.30;;;;;;;;;;4472456;28;20097;-66